Time;durP1;ratioP1;P1;durP2;ratioP2;P2;SDS_P1;SDS_P2;PMS_P1;PMS_P2;Temp;Humidity;BMP_temperature;BMP_pressure;BME280_temperature;BME280_humidity;BME280_pressure;Samples;Min_cycle;Max_cycle;Signal;HPM_P1;HPM_P2
2022/04/23 00:02:17;;;;;;;21.17;12.90;;;16.20;55.50;;;;;;4895308;29;20957;-92
2022/04/23 00:04:45;;;;;;;19.17;12.27;;;16.20;55.50;;;;;;4896138;29;20215;-92
2022/04/23 00:07:12;;;;;;;26.83;14.30;;;16.20;55.50;;;;;;4895976;29;20220;-93
2022/04/23 00:09:39;;;;;;;17.87;11.90;;;16.20;55.50;;;;;;4895624;29;20275;-91
2022/04/23 00:12:08;;;;;;;20.40;13.17;;;16.10;55.40;;;;;;4894283;29;20384;-90
2022/04/23 00:14:36;;;;;;;19.83;12.20;;;16.20;55.70;;;;;;4894825;29;20209;-90
2022/04/23 00:17:07;;;;;;;21.17;13.10;;;16.10;55.60;;;;;;4894880;29;20281;-92
2022/04/23 00:19:35;;;;;;;16.17;12.00;;;16.10;55.60;;;;;;4895865;29;20229;-91
2022/04/23 00:22:03;;;;;;;17.47;12.10;;;16.10;55.80;;;;;;4896136;29;20248;-94
2022/04/23 00:24:30;;;;;;;18.03;12.93;;;16.10;55.80;;;;;;4895268;29;20212;-91
2022/04/23 00:26:57;;;;;;;20.47;13.20;;;16.00;55.70;;;;;;4896027;29;20193;-92
2022/04/23 00:29:26;;;;;;;18.63;12.97;;;16.10;55.80;;;;;;4895160;29;20640;-90
2022/04/23 00:31:53;;;;;;;23.07;13.60;;;16.00;55.80;;;;;;4895623;29;20209;-91
2022/04/23 00:34:25;;;;;;;20.27;12.83;;;16.00;55.90;;;;;;4895308;29;20989;-91
2022/04/23 00:36:57;;;;;;;17.20;11.83;;;16.00;55.90;;;;;;4896172;29;20208;-91
2022/04/23 00:39:24;;;;;;;19.50;13.17;;;16.00;56.00;;;;;;4893694;29;20212;-92
2022/04/23 00:41:52;;;;;;;16.97;12.07;;;16.00;55.90;;;;;;4895606;29;20240;-90
2022/04/23 00:44:20;;;;;;;16.07;11.87;;;16.00;55.90;;;;;;4894883;29;20673;-90
2022/04/23 00:46:51;;;;;;;21.03;13.43;;;16.00;56.00;;;;;;4895593;29;20257;-91
2022/04/23 00:49:20;;;;;;;20.87;13.70;;;16.00;56.20;;;;;;4894317;29;20552;-91
2022/04/23 00:51:49;;;;;;;24.50;13.90;;;16.00;56.10;;;;;;4895584;29;20213;-89
2022/04/23 00:54:22;;;;;;;20.97;12.57;;;15.90;55.90;;;;;;4894681;29;20243;-93
2022/04/23 00:56:52;;;;;;;21.73;13.40;;;16.00;56.20;;;;;;4876932;29;20211;-91
2022/04/23 00:59:19;;;;;;;19.47;12.43;;;15.90;56.10;;;;;;4881188;29;20550;-93
2022/04/23 01:01:48;;;;;;;19.83;12.37;;;16.00;56.30;;;;;;4895186;29;20235;-90
2022/04/23 01:04:16;;;;;;;18.37;12.63;;;15.90;56.20;;;;;;4895071;29;20223;-91
2022/04/23 01:06:45;;;;;;;15.40;11.53;;;15.90;56.10;;;;;;4895564;29;20750;-91
2022/04/23 01:09:14;;;;;;;19.43;13.17;;;15.90;56.20;;;;;;4891918;29;20294;-93
2022/04/23 01:11:41;;;;;;;17.70;12.53;;;15.90;56.20;;;;;;4895212;29;20662;-91
2022/04/23 01:14:09;;;;;;;21.87;12.80;;;15.90;56.10;;;;;;4894454;29;20239;-90
2022/04/23 01:16:36;;;;;;;18.97;13.37;;;15.90;56.20;;;;;;4894581;29;20306;-90
2022/04/23 01:19:05;;;;;;;21.47;13.13;;;15.90;56.40;;;;;;4894602;29;20219;-90
2022/04/23 01:21:35;;;;;;;17.57;12.03;;;15.90;56.40;;;;;;4894259;29;20245;-91
2022/04/23 01:24:04;;;;;;;20.53;13.60;;;15.80;56.30;;;;;;4895091;29;20246;-93
2022/04/23 01:26:32;;;;;;;21.53;13.40;;;15.90;56.40;;;;;;4894596;29;20213;-91
2022/04/23 01:29:00;;;;;;;17.33;12.50;;;15.80;56.50;;;;;;4895104;29;20736;-92
2022/04/23 01:31:36;;;;;;;19.67;13.13;;;15.80;56.40;;;;;;4876436;29;20210;-91
2022/04/23 01:34:04;;;;;;;19.30;12.43;;;15.80;56.60;;;;;;4876081;29;20227;-92
2022/04/23 01:36:31;;;;;;;20.33;12.60;;;15.80;56.40;;;;;;4894060;29;20647;-91
2022/04/23 01:38:59;;;;;;;16.37;12.73;;;15.80;56.50;;;;;;4894556;29;20207;-93
2022/04/23 01:41:27;;;;;;;21.57;13.17;;;15.80;56.60;;;;;;4889130;29;20212;-92
2022/04/23 01:44:00;;;;;;;18.33;13.50;;;15.80;56.60;;;;;;4894762;29;20219;-92
2022/04/23 01:46:27;;;;;;;21.83;14.20;;;15.70;56.70;;;;;;4893452;29;20220;-92
2022/04/23 01:48:54;;;;;;;19.13;13.30;;;15.70;56.60;;;;;;4894601;29;20273;-92
2022/04/23 01:51:23;;;;;;;21.50;13.77;;;15.70;56.70;;;;;;4891795;29;20261;-93
2022/04/23 01:53:50;;;;;;;18.07;12.67;;;15.70;56.70;;;;;;4895150;29;20211;-92
2022/04/23 01:56:20;;;;;;;18.27;13.47;;;15.70;56.80;;;;;;4893832;29;20213;-92
2022/04/23 01:58:48;;;;;;;19.13;13.90;;;15.70;56.90;;;;;;4895072;29;20264;-90
2022/04/23 02:01:15;;;;;;;21.63;13.93;;;15.70;56.90;;;;;;4896611;29;20266;-91
2022/04/23 02:03:42;;;;;;;23.47;14.77;;;15.70;57.00;;;;;;4897549;29;20222;-92
2022/04/23 02:06:09;;;;;;;18.03;13.60;;;15.70;57.00;;;;;;4897110;29;20240;-92
2022/04/23 02:08:36;;;;;;;24.30;14.07;;;15.70;57.20;;;;;;4897021;29;20276;-92
2022/04/23 02:11:03;;;;;;;18.53;13.53;;;15.70;57.10;;;;;;4898342;29;20194;-92
2022/04/23 02:13:34;;;;;;;23.00;14.87;;;15.70;57.20;;;;;;4896834;29;20308;-92
2022/04/23 02:16:03;;;;;;;17.63;13.27;;;15.60;57.30;;;;;;4897851;29;20620;-90
2022/04/23 02:18:31;;;;;;;25.07;14.70;;;15.70;57.40;;;;;;4897783;29;20651;-92
2022/04/23 02:20:58;;;;;;;24.20;15.67;;;15.70;57.60;;;;;;4897389;29;20247;-92
2022/04/23 02:23:28;;;;;;;20.20;14.50;;;15.70;57.40;;;;;;4897762;29;20326;-89
2022/04/23 02:26:06;;;;;;;21.63;14.23;;;15.60;57.50;;;;;;4879811;29;20631;-93
2022/04/23 02:28:35;;;;;;;23.13;15.40;;;15.60;57.80;;;;;;4880534;29;20216;-93
2022/04/23 02:31:02;;;;;;;23.43;15.03;;;15.60;57.80;;;;;;4904872;29;20212;-92
2022/04/23 02:33:35;;;;;;;28.37;16.97;;;15.50;57.80;;;;;;4913796;29;20210;-95
2022/04/23 02:36:02;;;;;;;20.73;14.57;;;15.50;57.90;;;;;;4908783;29;20610;-94
2022/04/23 02:38:29;;;;;;;18.53;14.40;;;15.50;57.80;;;;;;4901541;29;20234;-91
2022/04/23 02:40:57;;;;;;;21.47;15.43;;;15.60;58.00;;;;;;4892871;29;20364;-90
2022/04/23 02:43:24;;;;;;;21.07;14.17;;;15.50;58.10;;;;;;4899355;29;20774;-92
2022/04/23 02:45:53;;;;;;;19.33;14.27;;;15.50;58.20;;;;;;4897959;29;20264;-91
2022/04/23 02:48:21;;;;;;;20.40;14.60;;;15.50;58.40;;;;;;4894860;29;20750;-90
2022/04/23 02:50:49;;;;;;;25.60;14.83;;;15.50;58.40;;;;;;4895319;29;20307;-93
2022/04/23 02:53:26;;;;;;;23.50;15.47;;;15.40;58.20;;;;;;4897817;29;20198;-92
2022/04/23 02:55:54;;;;;;;22.67;15.00;;;15.40;58.70;;;;;;4897027;29;20253;-92
2022/04/23 02:58:23;;;;;;;24.27;17.17;;;15.40;58.50;;;;;;4911507;29;20235;-93
2022/04/23 03:00:52;;;;;;;23.13;15.63;;;15.40;58.40;;;;;;4913040;29;20216;-91
2022/04/23 03:03:39;;;;;;;21.10;14.73;;;15.40;58.50;;;;;;4900822;29;20325;-91
2022/04/23 03:06:07;;;;;;;21.73;14.77;;;15.40;58.70;;;;;;4899859;29;20221;-92
2022/04/23 03:08:37;;;;;;;20.33;15.47;;;15.40;58.50;;;;;;4889978;29;20242;-89
2022/04/23 03:11:09;;;;;;;24.77;16.67;;;15.40;58.90;;;;;;4896778;29;20225;-92
2022/04/23 03:13:37;;;;;;;24.73;16.13;;;15.40;59.10;;;;;;4895539;29;20301;-93
2022/04/23 03:16:05;;;;;;;21.27;15.37;;;15.40;58.80;;;;;;4897679;29;20268;-92
2022/04/23 03:18:42;;;;;;;21.13;14.60;;;15.40;58.70;;;;;;4897503;29;20231;-91
2022/04/23 03:21:10;;;;;;;23.80;15.57;;;15.30;59.20;;;;;;4897238;29;20209;-91
2022/04/23 03:23:39;;;;;;;23.40;15.50;;;15.30;58.90;;;;;;4897626;29;20288;-93
2022/04/23 03:26:07;;;;;;;20.53;13.90;;;15.30;59.00;;;;;;4896886;29;20287;-94
2022/04/23 03:28:35;;;;;;;22.23;15.60;;;15.30;58.90;;;;;;4876852;29;20913;-91
2022/04/23 03:31:02;;;;;;;25.03;16.30;;;15.30;58.90;;;;;;4885094;29;20623;-93
2022/04/23 03:33:30;;;;;;;20.10;14.73;;;15.30;59.00;;;;;;4896955;29;20213;-94
2022/04/23 03:36:06;;;;;;;20.60;15.13;;;15.30;59.00;;;;;;4896677;29;20319;-91
2022/04/23 03:38:35;;;;;;;24.80;16.27;;;15.30;59.40;;;;;;4897444;29;20280;-94
2022/04/23 03:41:02;;;;;;;21.73;14.87;;;15.20;59.40;;;;;;4896364;29;20968;-92
2022/04/23 03:43:37;;;;;;;25.77;15.90;;;15.20;59.20;;;;;;4897158;29;20277;-91
2022/04/23 03:46:05;;;;;;;19.50;15.10;;;15.20;59.50;;;;;;4887218;29;20233;-92
2022/04/23 03:48:32;;;;;;;23.57;16.73;;;15.20;59.40;;;;;;4893880;29;20206;-94
2022/04/23 03:51:02;;;;;;;20.73;15.23;;;15.20;59.40;;;;;;4893983;29;20273;-92
2022/04/23 03:53:30;;;;;;;23.67;16.50;;;15.20;59.70;;;;;;4896783;29;20205;-94
2022/04/23 03:56:00;;;;;;;22.67;16.03;;;15.10;59.80;;;;;;4887498;29;20301;-94
2022/04/23 03:58:28;;;;;;;25.20;16.30;;;15.10;60.00;;;;;;4896555;29;20269;-92
2022/04/23 04:03:40;;;;;;;20.63;14.70;;;15.10;60.40;;;;;;4924004;23;20733;-94
2022/04/23 04:06:07;;;;;;;19.90;15.30;;;15.10;59.90;;;;;;4914744;29;20227;-91
2022/04/23 04:08:36;;;;;;;24.60;16.63;;;15.10;59.90;;;;;;4908308;29;20233;-93
2022/04/23 04:11:03;;;;;;;20.33;15.23;;;15.10;59.90;;;;;;4915693;29;20269;-92
2022/04/23 04:13:32;;;;;;;20.20;15.67;;;15.00;60.10;;;;;;4897550;29;20822;-93
2022/04/23 04:16:00;;;;;;;21.10;15.77;;;15.10;60.30;;;;;;4915275;29;20287;-96
2022/04/23 04:18:27;;;;;;;19.53;15.17;;;15.00;60.10;;;;;;4916549;29;20209;-93
2022/04/23 04:20:55;;;;;;;30.03;17.97;;;15.00;60.90;;;;;;4923774;23;20229;-95
2022/04/23 04:23:24;;;;;;;24.67;16.73;;;15.00;60.40;;;;;;4934453;29;20323;-92
2022/04/23 04:25:59;;;;;;;23.73;16.40;;;15.00;60.30;;;;;;4917977;29;20266;-92
2022/04/23 04:28:26;;;;;;;23.63;16.50;;;15.00;60.70;;;;;;4914762;29;20748;-92
2022/04/23 04:37:06;;;;;;;20.80;15.27;;;15.00;60.40;;;;;;4933605;29;20967;-93
2022/04/23 04:39:34;;;;;;;20.07;14.90;;;15.00;60.40;;;;;;4927989;29;20615;-91
2022/04/23 04:42:03;;;;;;;24.83;16.33;;;14.90;60.30;;;;;;4914216;29;20232;-91
2022/04/23 04:44:30;;;;;;;21.07;15.57;;;14.90;60.60;;;;;;4919294;29;20231;-91
2022/04/23 04:47:00;;;;;;;25.07;16.53;;;14.90;60.60;;;;;;4933012;29;20283;-90
2022/04/23 04:49:27;;;;;;;22.53;15.27;;;14.90;61.30;;;;;;4927914;29;20661;-91
2022/04/23 04:51:56;;;;;;;23.03;16.60;;;14.90;61.00;;;;;;4933208;29;20302;-92
2022/04/23 04:54:24;;;;;;;22.43;16.57;;;14.90;61.30;;;;;;4932737;29;20206;-90
2022/04/23 04:56:53;;;;;;;23.37;16.93;;;14.90;61.80;;;;;;4932698;29;20216;-92
2022/04/23 04:59:22;;;;;;;25.13;16.50;;;14.80;61.20;;;;;;4932072;29;20242;-91
2022/04/23 05:01:49;;;;;;;30.77;18.07;;;14.80;61.40;;;;;;4929750;29;20219;-92
2022/04/23 05:04:16;;;;;;;26.00;17.00;;;14.80;61.10;;;;;;4922726;29;20231;-92
2022/04/23 05:06:43;;;;;;;19.63;15.37;;;14.80;61.00;;;;;;4933233;29;20295;-91
2022/04/23 05:09:10;;;;;;;25.33;16.77;;;14.80;61.20;;;;;;4932252;29;20306;-92
2022/04/23 05:11:37;;;;;;;21.30;15.07;;;14.80;61.10;;;;;;4932906;29;20732;-92
2022/04/23 05:14:04;;;;;;;24.83;16.90;;;14.80;61.20;;;;;;4951870;23;20334;-91
2022/04/23 05:16:33;;;;;;;21.03;15.13;;;14.80;61.70;;;;;;4928567;29;20264;-92
2022/04/23 05:19:02;;;;;;;20.43;15.80;;;14.80;61.80;;;;;;4929474;29;20237;-91
2022/04/23 05:21:29;;;;;;;20.83;16.10;;;14.80;61.60;;;;;;4927210;29;20203;-89
2022/04/23 05:24:26;;;;;;;31.03;18.37;;;14.80;61.30;;;;;;4930346;29;20236;-91
2022/04/23 05:26:56;;;;;;;22.37;15.63;;;14.70;61.80;;;;;;4918082;29;20216;-92
2022/04/23 05:29:38;;;;;;;23.93;15.43;;;14.80;61.60;;;;;;4913248;29;20208;-91
2022/04/23 05:32:10;;;;;;;26.47;16.47;;;14.80;61.70;;;;;;4923481;29;20242;-93
2022/04/23 05:34:37;;;;;;;21.77;15.93;;;14.80;61.50;;;;;;4922390;29;20238;-93
2022/04/23 05:37:05;;;;;;;24.47;16.40;;;14.80;61.50;;;;;;4932439;29;20220;-92
2022/04/23 05:39:34;;;;;;;25.40;16.73;;;14.80;61.50;;;;;;4932183;29;20298;-92
2022/04/23 05:42:02;;;;;;;25.30;17.43;;;14.80;61.70;;;;;;4932586;29;20221;-91
2022/04/23 05:44:29;;;;;;;25.70;16.60;;;14.80;61.60;;;;;;4932838;29;20303;-91
2022/04/23 05:46:58;;;;;;;21.90;15.87;;;14.80;61.60;;;;;;4930885;29;20641;-93
2022/04/23 05:49:27;;;;;;;34.03;18.57;;;14.80;61.80;;;;;;4917090;29;20325;-91
2022/04/23 05:51:54;;;;;;;26.93;16.67;;;14.80;61.80;;;;;;4913833;29;20214;-91
2022/04/23 05:54:21;;;;;;;26.57;17.37;;;14.80;61.80;;;;;;4913631;29;20211;-91
2022/04/23 05:56:49;;;;;;;24.10;16.73;;;14.80;62.70;;;;;;4929451;29;20212;-91
2022/04/23 05:59:16;;;;;;;19.47;16.30;;;14.80;61.90;;;;;;4933095;29;20231;-92
2022/04/23 06:01:43;;;;;;;24.40;16.97;;;14.80;61.90;;;;;;4908703;29;20230;-91
2022/04/23 06:04:11;;;;;;;23.80;17.03;;;14.80;62.40;;;;;;4914392;29;20239;-94
2022/04/23 06:06:39;;;;;;;26.73;16.83;;;14.80;62.20;;;;;;4932682;29;20212;-93
2022/04/23 06:09:12;;;;;;;24.30;16.30;;;14.80;62.20;;;;;;4937389;29;20220;-91
2022/04/23 06:11:51;;;;;;;24.73;17.77;;;14.90;62.50;;;;;;4929490;29;20209;-91
2022/04/23 06:14:18;;;;;;;28.03;17.20;;;14.90;62.60;;;;;;4908056;29;20217;-91
2022/04/23 06:16:46;;;;;;;23.43;16.87;;;14.90;62.30;;;;;;4904513;29;20352;-93
2022/04/23 06:19:14;;;;;;;22.83;17.20;;;14.90;62.50;;;;;;4915457;29;20302;-92
2022/04/23 06:21:43;;;;;;;20.87;16.30;;;14.90;62.30;;;;;;4915384;29;20216;-92
2022/04/23 06:24:12;;;;;;;28.77;18.33;;;14.90;62.40;;;;;;4907052;29;20838;-92
2022/04/23 06:26:41;;;;;;;22.43;16.30;;;14.90;62.20;;;;;;4907081;29;20219;-92
2022/04/23 06:29:09;;;;;;;21.00;16.47;;;15.00;62.70;;;;;;4912183;29;20669;-93
2022/04/23 06:31:36;;;;;;;23.90;17.57;;;15.00;62.50;;;;;;4912513;29;20217;-91
2022/04/23 06:36:49;;;;;;;22.23;17.30;;;15.00;62.30;;;;;;4906535;29;20218;-91
2022/04/23 06:39:16;;;;;;;26.33;18.17;;;15.00;62.50;;;;;;4928296;29;20193;-92
2022/04/23 06:41:44;;;;;;;24.20;17.77;;;15.00;62.40;;;;;;4915624;29;20215;-92
2022/04/23 06:44:11;;;;;;;24.13;17.10;;;15.00;62.60;;;;;;4916336;29;20268;-93
2022/04/23 06:46:39;;;;;;;26.50;18.57;;;15.00;62.90;;;;;;4912950;29;20205;-94
2022/04/23 06:49:10;;;;;;;22.87;16.20;;;15.10;62.80;;;;;;4901101;29;20211;-93
2022/04/23 06:51:40;;;;;;;28.87;17.50;;;15.10;62.80;;;;;;4902250;29;20260;-91
2022/04/23 06:54:22;;;;;;;25.37;18.77;;;15.10;62.60;;;;;;4916988;29;20214;-91
2022/04/23 06:56:49;;;;;;;27.10;18.33;;;15.20;63.10;;;;;;4915540;29;20661;-93
2022/04/23 06:59:16;;;;;;;26.10;18.17;;;15.20;62.70;;;;;;4915768;29;20648;-91
2022/04/23 07:01:44;;;;;;;28.50;19.67;;;15.30;62.80;;;;;;4914139;29;20236;-91
2022/04/23 07:04:13;;;;;;;24.23;17.73;;;15.30;62.70;;;;;;4916521;29;20250;-92
2022/04/23 07:06:42;;;;;;;25.13;19.10;;;15.40;62.70;;;;;;4915911;29;20236;-94
2022/04/23 07:09:10;;;;;;;25.30;18.73;;;15.40;62.80;;;;;;4912657;29;20258;-90
2022/04/23 07:11:39;;;;;;;22.13;17.70;;;15.40;62.70;;;;;;4915586;29;20286;-89
2022/04/23 07:14:07;;;;;;;23.97;17.47;;;15.50;62.70;;;;;;4916301;29;20741;-93
2022/04/23 07:16:35;;;;;;;28.97;20.10;;;15.50;62.40;;;;;;4915035;29;20244;-95
2022/04/23 07:19:04;;;;;;;25.57;18.33;;;15.60;62.60;;;;;;4916497;29;20299;-95
2022/04/23 07:21:32;;;;;;;28.17;18.87;;;15.60;62.50;;;;;;4899933;29;20241;-94
2022/04/23 07:24:05;;;;;;;26.67;19.70;;;15.70;62.50;;;;;;4918656;29;20598;-93
2022/04/23 07:26:35;;;;;;;23.27;18.23;;;15.70;62.40;;;;;;4917684;29;20211;-95
2022/04/23 07:29:06;;;;;;;25.30;19.43;;;15.80;62.20;;;;;;4917855;29;20288;-92
2022/04/23 07:31:34;;;;;;;25.00;18.73;;;15.80;62.20;;;;;;4918000;29;20204;-93
2022/04/23 07:39:34;;;;;;;24.27;19.63;;;16.00;62.10;;;;;;4917408;29;20200;-96
2022/04/23 07:42:02;;;;;;;27.40;20.63;;;16.10;61.60;;;;;;4917756;29;20205;-94
2022/04/23 07:44:29;;;;;;;22.27;18.27;;;16.20;61.70;;;;;;4917526;29;20756;-94
2022/04/23 07:46:57;;;;;;;26.13;19.03;;;16.20;61.70;;;;;;4917216;29;20680;-95
2022/04/23 07:49:27;;;;;;;23.90;18.80;;;16.30;61.70;;;;;;4916880;29;20300;-95
2022/04/23 07:51:55;;;;;;;23.03;18.53;;;16.30;61.70;;;;;;4917468;29;20193;-94
2022/04/23 07:54:28;;;;;;;26.50;19.03;;;16.40;61.60;;;;;;4916344;29;20759;-96
2022/04/23 07:56:55;;;;;;;23.87;18.73;;;16.50;61.40;;;;;;4917307;29;20207;-95
2022/04/23 07:59:24;;;;;;;24.40;20.03;;;16.50;60.80;;;;;;4916930;29;20286;-95
2022/04/23 08:01:53;;;;;;;27.43;19.80;;;16.60;60.70;;;;;;4916203;29;20290;-93
2022/04/23 08:04:20;;;;;;;24.83;19.47;;;16.70;60.60;;;;;;4916054;29;20312;-95
2022/04/23 08:06:48;;;;;;;24.50;19.77;;;16.70;60.20;;;;;;4918796;29;20620;-93
2022/04/23 08:09:21;;;;;;;25.23;19.20;;;16.80;60.30;;;;;;4899308;29;20256;-90
2022/04/23 08:11:48;;;;;;;27.73;20.13;;;16.90;60.20;;;;;;4914655;29;20322;-91
2022/04/23 08:14:16;;;;;;;24.30;19.30;;;16.90;59.90;;;;;;4917919;29;20252;-96
2022/04/23 08:16:48;;;;;;;27.63;19.57;;;17.00;59.90;;;;;;4916310;29;20208;-91
2022/04/23 08:19:17;;;;;;;26.63;20.77;;;17.10;59.70;;;;;;4914276;29;20251;-91
2022/04/23 08:21:45;;;;;;;26.07;19.87;;;17.10;59.50;;;;;;4915878;29;20214;-93
2022/04/23 08:24:12;;;;;;;24.90;19.67;;;17.20;59.40;;;;;;4914673;29;20307;-96
2022/04/23 08:26:39;;;;;;;23.43;18.37;;;17.30;59.30;;;;;;4917246;29;20200;-92
2022/04/23 08:31:55;;;;;;;26.80;19.53;;;17.40;59.60;;;;;;4872982;29;20221;-92
2022/04/23 08:34:24;;;;;;;21.87;18.13;;;17.50;59.10;;;;;;4919012;29;20207;-93
2022/04/23 08:36:56;;;;;;;20.73;18.43;;;17.50;58.30;;;;;;4921488;29;20577;-95
2022/04/23 08:39:23;;;;;;;22.43;19.10;;;17.60;58.70;;;;;;4910116;29;20229;-91
2022/04/23 08:41:51;;;;;;;26.03;18.57;;;17.60;58.20;;;;;;4896029;29;20212;-95
2022/04/23 08:44:18;;;;;;;24.00;19.97;;;17.70;58.60;;;;;;4898403;29;20246;-93
2022/04/23 08:46:45;;;;;;;20.37;17.60;;;17.80;58.60;;;;;;4898655;29;20212;-96
2022/04/23 08:49:16;;;;;;;24.63;19.30;;;17.80;58.50;;;;;;4899294;29;20232;-96
2022/04/23 08:51:45;;;;;;;26.07;19.93;;;18.00;58.40;;;;;;4904087;29;20219;-92
2022/04/23 08:54:14;;;;;;;25.43;19.47;;;18.10;57.90;;;;;;4909480;29;20219;-93
2022/04/23 08:56:43;;;;;;;25.83;18.20;;;18.20;57.60;;;;;;4914249;29;20248;-93
2022/04/23 08:59:13;;;;;;;22.47;18.10;;;18.30;58.30;;;;;;4912788;29;20216;-91
2022/04/23 09:01:41;;;;;;;34.80;21.33;;;18.40;57.40;;;;;;4909295;29;20272;-91
2022/04/23 09:04:09;;;;;;;27.87;20.17;;;18.60;57.90;;;;;;4911920;29;20253;-89
2022/04/23 09:06:40;;;;;;;25.17;18.47;;;18.80;57.20;;;;;;4899211;29;20240;-94
2022/04/23 09:09:13;;;;;;;24.10;18.67;;;18.90;57.20;;;;;;4894148;29;20233;-92
2022/04/23 09:11:42;;;;;;;22.00;18.60;;;19.10;55.80;;;;;;4917358;29;20244;-96
2022/04/23 09:14:10;;;;;;;19.80;17.50;;;19.20;56.10;;;;;;4917567;29;20208;-96
2022/04/23 09:25:11;;;;;;;29.23;20.37;;;19.70;55.30;;;;;;4912038;29;20688;-95
2022/04/23 09:27:42;;;;;;;22.47;17.80;;;19.70;55.40;;;;;;4894929;29;20720;-91
2022/04/23 09:30:11;;;;;;;24.37;18.10;;;19.80;55.30;;;;;;4909715;29;20224;-92
2022/04/23 09:32:38;;;;;;;22.93;18.00;;;19.90;55.50;;;;;;4916956;29;20209;-93
2022/04/23 09:35:11;;;;;;;25.50;17.97;;;20.00;55.60;;;;;;4909913;29;20220;-94
2022/04/23 09:40:34;;;;;;;23.70;18.00;;;20.20;53.70;;;;;;4868708;29;20211;-94
2022/04/23 09:43:03;;;;;;;21.13;17.13;;;20.30;54.00;;;;;;4919032;29;20205;-96
2022/04/23 09:45:41;;;;;;;22.10;17.93;;;20.50;54.20;;;;;;4922884;29;20232;-95
2022/04/23 09:48:38;;;;;;;23.83;18.17;;;20.60;53.20;;;;;;4911808;29;20209;-94
2022/04/23 09:51:05;;;;;;;24.13;18.47;;;20.70;53.10;;;;;;4904167;29;20225;-92
2022/04/23 09:53:36;;;;;;;23.63;19.00;;;20.90;53.80;;;;;;4913585;29;20296;-93
2022/04/23 09:56:07;;;;;;;22.73;17.70;;;21.00;53.00;;;;;;4901027;29;20301;-96
2022/04/23 09:58:36;;;;;;;21.60;18.10;;;21.20;52.90;;;;;;4905354;29;20614;-93
2022/04/23 10:01:03;;;;;;;22.23;16.67;;;21.30;52.20;;;;;;4905046;29;20213;-94
2022/04/23 10:03:31;;;;;;;25.17;17.97;;;21.40;52.30;;;;;;4903252;29;20206;-94
2022/04/23 10:05:59;;;;;;;22.73;17.87;;;21.50;51.90;;;;;;4912560;29;20239;-93
2022/04/23 10:08:29;;;;;;;22.63;17.47;;;21.70;52.50;;;;;;4907977;29;20267;-91
2022/04/23 10:11:12;;;;;;;21.53;18.20;;;21.80;51.70;;;;;;4915267;29;20269;-91
2022/04/23 10:14:02;;;;;;;22.27;17.47;;;21.90;50.80;;;;;;4926097;29;20243;-93
2022/04/23 10:16:35;;;;;;;22.97;18.27;;;22.00;51.50;;;;;;4919696;29;20221;-93
2022/04/23 10:19:04;;;;;;;20.63;17.83;;;22.20;51.50;;;;;;4911411;29;20700;-93
2022/04/23 10:21:42;;;;;;;20.00;17.07;;;22.30;50.80;;;;;;4914501;29;20659;-93
2022/04/23 10:24:17;;;;;;;22.57;17.40;;;22.40;50.90;;;;;;4920047;29;20222;-94
2022/04/23 10:26:49;;;;;;;20.43;17.07;;;22.50;50.70;;;;;;4904075;29;20686;-90
2022/04/23 10:29:20;;;;;;;23.77;17.57;;;22.60;50.90;;;;;;4912823;29;20752;-93
2022/04/23 10:32:19;;;;;;;24.90;18.70;;;22.70;51.10;;;;;;4911066;29;20209;-93
2022/04/23 10:34:46;;;;;;;25.60;17.87;;;22.90;49.90;;;;;;4906342;29;20220;-93
2022/04/23 10:37:18;;;;;;;22.27;17.43;;;23.00;50.60;;;;;;4910664;29;20866;-93
2022/04/23 10:39:46;;;;;;;19.43;15.67;;;23.20;49.30;;;;;;4900591;29;20256;-95
2022/04/23 10:42:18;;;;;;;18.43;14.87;;;23.30;49.50;;;;;;4910111;29;20629;-92
2022/04/23 10:44:47;;;;;;;20.00;16.53;;;23.40;49.40;;;;;;4913360;29;20225;-94
2022/04/23 10:47:44;;;;;;;18.30;15.83;;;23.50;49.50;;;;;;4915521;29;20213;-94
2022/04/23 10:50:31;;;;;;;16.90;15.07;;;23.60;48.50;;;;;;4912023;29;20228;-95
2022/04/23 10:53:04;;;;;;;18.80;16.80;;;23.80;48.60;;;;;;4916938;29;20257;-89
2022/04/23 10:55:32;;;;;;;20.80;17.03;;;23.80;47.40;;;;;;4912649;29;20220;-94
2022/04/23 10:58:22;;;;;;;18.67;15.67;;;23.90;47.60;;;;;;4910429;29;20201;-94
2022/04/23 11:00:49;;;;;;;19.20;16.00;;;24.00;47.60;;;;;;4916621;29;20213;-94
2022/04/23 11:03:16;;;;;;;23.90;15.77;;;24.10;48.50;;;;;;4918700;29;20213;-91
2022/04/23 11:14:45;;;;;;;18.70;16.17;;;24.30;47.40;;;;;;4903676;29;20296;-92
2022/04/23 11:17:17;;;;;;;21.33;16.83;;;24.40;46.00;;;;;;4900569;29;20293;-90
2022/04/23 11:19:45;;;;;;;16.80;14.80;;;24.50;46.40;;;;;;4908727;29;20206;-90
2022/04/23 11:22:13;;;;;;;18.23;16.27;;;24.50;46.80;;;;;;4902588;29;20853;-91
2022/04/23 11:24:49;;;;;;;23.23;17.63;;;24.60;47.00;;;;;;4905742;29;20229;-91
2022/04/23 11:27:27;;;;;;;18.77;16.77;;;24.60;46.30;;;;;;4907076;29;20268;-89
2022/04/23 11:29:56;;;;;;;17.97;15.93;;;24.70;46.10;;;;;;4903208;29;20301;-90
2022/04/23 11:32:42;;;;;;;21.10;17.47;;;24.80;47.00;;;;;;4911560;29;20244;-91
2022/04/23 11:35:10;;;;;;;18.23;16.30;;;24.80;46.00;;;;;;4906117;29;20272;-89
2022/04/23 11:37:39;;;;;;;19.37;16.20;;;24.90;46.40;;;;;;4905320;29;20281;-90
2022/04/23 11:40:12;;;;;;;16.47;14.77;;;24.90;46.60;;;;;;4904378;29;20209;-90
2022/04/23 11:42:57;;;;;;;20.73;15.93;;;25.00;46.00;;;;;;4902917;29;20229;-94
2022/04/23 11:45:25;;;;;;;20.87;16.53;;;25.00;45.40;;;;;;4912537;29;20237;-91
2022/04/23 11:47:52;;;;;;;19.53;16.67;;;25.10;46.00;;;;;;4901506;29;20240;-91
2022/04/23 11:50:21;;;;;;;19.83;17.67;;;25.10;45.90;;;;;;4905660;29;20757;-91
2022/04/23 11:52:59;;;;;;;21.53;18.23;;;25.20;45.50;;;;;;4905101;29;20227;-92
2022/04/23 11:55:27;;;;;;;17.80;15.57;;;25.20;45.90;;;;;;4904348;29;20296;-94
2022/04/23 11:57:56;;;;;;;26.97;16.67;;;25.30;46.10;;;;;;4897892;29;20261;-93
2022/04/23 12:00:25;;;;;;;23.27;18.97;;;25.40;46.30;;;;;;4910018;29;20213;-89
2022/04/23 12:03:00;;;;;;;20.93;17.00;;;25.40;45.40;;;;;;4914624;29;20229;-93
2022/04/23 12:05:29;;;;;;;24.73;18.33;;;25.50;44.60;;;;;;4911803;29;20599;-90
2022/04/23 12:07:56;;;;;;;17.50;15.20;;;25.60;45.00;;;;;;4917039;29;20515;-94
2022/04/23 12:10:25;;;;;;;23.00;18.37;;;25.60;45.20;;;;;;4919212;29;20241;-94
2022/04/23 12:12:53;;;;;;;16.30;14.57;;;25.60;44.50;;;;;;4920217;29;20237;-89
2022/04/23 12:15:21;;;;;;;16.70;14.50;;;25.60;44.90;;;;;;4915385;29;20247;-89
2022/04/23 12:17:55;;;;;;;19.90;15.67;;;25.60;45.10;;;;;;4912299;29;20216;-91
2022/04/23 12:20:26;;;;;;;20.87;15.60;;;25.70;44.70;;;;;;4911738;29;20226;-92
2022/04/23 12:23:03;;;;;;;15.57;13.97;;;25.80;45.40;;;;;;4913651;29;20209;-92
2022/04/23 12:25:31;;;;;;;19.40;14.83;;;25.80;45.30;;;;;;4914294;29;20260;-91
2022/04/23 12:28:00;;;;;;;24.27;18.00;;;25.90;45.10;;;;;;4912457;29;20614;-92
2022/04/23 12:41:38;;;;;;;22.47;14.30;;;26.40;44.60;;;;;;4913790;29;20268;-92
2022/04/23 12:44:19;;;;;;;16.47;14.30;;;26.50;45.10;;;;;;4895528;29;20624;-91
2022/04/23 12:46:59;;;;;;;17.33;14.30;;;26.60;43.30;;;;;;4914045;29;20244;-92
2022/04/23 12:49:47;;;;;;;16.67;14.13;;;26.70;43.40;;;;;;4913823;29;20342;-92
2022/04/23 12:52:16;;;;;;;16.43;13.70;;;26.70;42.60;;;;;;4912252;29;20668;-95
2022/04/23 12:55:14;;;;;;;15.50;13.67;;;26.70;42.90;;;;;;4895880;29;20201;-91
2022/04/23 12:57:42;;;;;;;17.23;12.30;;;26.70;43.20;;;;;;4914898;29;20208;-92
2022/04/23 13:00:11;;;;;;;13.37;12.00;;;26.70;44.10;;;;;;4914511;29;20244;-95
2022/04/23 13:02:39;;;;;;;18.07;13.97;;;26.80;43.90;;;;;;4912585;29;20216;-91
2022/04/23 13:05:10;;;;;;;13.27;11.60;;;26.80;43.60;;;;;;4914076;29;20247;-94
2022/04/23 13:10:23;;;;;;;13.27;11.67;;;26.80;43.30;;;;;;4899689;29;20213;-94
2022/04/23 13:12:50;;;;;;;12.87;11.33;;;26.80;43.70;;;;;;4915223;29;20646;-90
2022/04/23 13:15:17;;;;;;;15.10;12.33;;;26.80;43.30;;;;;;4912743;29;20213;-95
2022/04/23 13:17:46;;;;;;;13.90;11.60;;;26.80;43.40;;;;;;4918403;29;20212;-92
2022/04/23 13:20:17;;;;;;;14.67;10.47;;;26.80;42.50;;;;;;4931627;29;20194;-95
2022/04/23 13:22:44;;;;;;;14.43;9.50;;;26.80;42.10;;;;;;4920718;29;20240;-93
2022/04/23 13:25:14;;;;;;;15.27;12.23;;;26.80;42.40;;;;;;4917674;29;20239;-94
2022/04/23 13:27:41;;;;;;;13.60;9.70;;;26.80;42.40;;;;;;4908215;29;20299;-94
2022/04/23 13:30:11;;;;;;;13.07;11.70;;;26.80;42.60;;;;;;4908338;29;20291;-94
2022/04/23 13:32:39;;;;;;;12.67;9.57;;;26.80;41.30;;;;;;4917496;29;20237;-93
2022/04/23 13:35:08;;;;;;;13.00;10.20;;;26.80;41.70;;;;;;4915400;29;20638;-91
2022/04/23 13:37:38;;;;;;;11.37;10.17;;;26.80;42.20;;;;;;4908420;29;20209;-95